Flight Track Log - Related Links

Times and Time Zones

All times are in EDT time to prevent confusion due to time zone crossing. See the ASA406 flight status page for this flight to view local times or setup timezone preferences in your user account.

Time Position Orientation Groundspeed Altitude Reporting Facility
EDT Latitude Longitude Course Direction KTS MPH feet Rate Location/Type
Mon 09:23:36 AM 45.5978 -122.6056 293° West 154 177 800  Level Seattle Center
Mon 09:24:32 AM 45.6139 -122.6597 293° West 192 221 2,100 1,538 Climbing Seattle Center
Mon 09:25:33 AM 45.6447 -122.7408 299° West 219 252 3,800 2,380 Climbing Seattle Center
Mon 09:26:33 AM 45.6603 -122.8431 282° West 273 314 6,900 2,579 Climbing Seattle Center
Mon 09:27:34 AM 45.5878 -122.8825 201° Southwest 291 335 9,000 1,983 Climbing Seattle Center
Mon 09:28:34 AM 45.5008 -122.9039 190° South 311 358 10,900 1,934 Climbing Seattle Center
Mon 09:29:35 AM 45.3983 -122.9281 189° South 362 417 12,900 2,182 Climbing Seattle Center
Mon 09:30:35 AM 45.2906 -122.9528 189° South 388 447 15,300 2,380 Climbing Seattle Center
Mon 09:31:36 AM 45.1531 -122.9850 189° South 415 478 17,700 2,459 Climbing Seattle Center
Mon 09:32:37 AM 45.0331 -123.0142 190° South 433 498 20,300 2,479 Climbing Seattle Center
Mon 09:33:37 AM 44.9142 -123.0403 189° South 430 495 22,700 2,033 Climbing Seattle Center
Mon 09:34:38 AM 44.7911 -123.0681 189° South 439 505 24,400 1,587 Climbing Seattle Center
Mon 09:35:38 AM 44.6617 -123.0978 189° South 464 534 25,900 1,686 Climbing Seattle Center
Mon 09:36:39 AM 44.5303 -123.1281 189° South 476 548 27,800 1,785 Climbing Seattle Center
Mon 09:37:39 AM 44.3953 -123.1306 181° South 484 557 29,500 1,388 Climbing Seattle Center
Mon 09:38:40 AM 44.2567 -123.1247 178° South 493 567 30,600 1,180 Climbing Seattle Center
Mon 09:39:41 AM 44.1147 -123.1206 179° South 507 583 31,900 1,388 Climbing Seattle Center
Mon 09:40:41 AM 43.9781 -123.1153 178° South 504 580 33,400 1,488 Climbing Seattle Center
Mon 09:41:42 AM 43.8389 -123.1114 179° South 499 574 34,900 1,388 Climbing Seattle Center
Mon 09:42:42 AM 43.7036 -123.1061 178° South 490 564 36,200 1,041 Climbing Seattle Center
Mon 09:43:43 AM 43.5692 -123.1006 178° South 484 557 37,000 393 Climbing Seattle Center
Mon 09:44:44 AM 43.4347 -123.0956 178° South 484 557 37,000  Level Seattle Center
Mon 09:45:44 AM 43.3008 -123.0906 178° South 482 555 37,000  Level Seattle Center
Mon 09:46:45 AM 43.1669 -123.0856 178° South 480 552 37,000  Level Seattle Center
Mon 09:47:45 AM 43.0347 -123.0814 179° South 477 549 37,000  Level Seattle Center
Mon 09:48:46 AM 42.9025 -123.0750 178° South 476 548 37,000  Level Seattle Center
Mon 09:49:46 AM 42.7708 -123.0719 179° South 474 545 37,000  Level Seattle Center
Mon 09:50:47 AM 42.6461 -123.0675 178° South 474 545 37,000  Level Seattle Center
Mon 09:51:48 AM 42.5142 -123.0636 179° South 475 547 37,000  Level Seattle Center
Mon 09:52:48 AM 42.3556 -123.0592 179° South 476 548 37,000  Level Seattle Center
Mon 09:53:49 AM 42.2250 -123.0550 179° South 474 545 37,000  Level Seattle Center
Mon 09:54:50 AM 42.0939 -123.0508 179° South 473 544 37,000  Level Seattle Center
Mon 09:55:50 AM 41.9631 -123.0481 179° South 473 544 37,000  Level Seattle Center
Mon 09:56:51 AM 41.8333 -123.0433 178° South 470 541 37,000  Level Seattle Center
Mon 09:57:52 AM 41.7031 -123.0369 178° South 470 541 37,000  Level Seattle Center
Mon 09:58:52 AM 41.5739 -123.0306 178° South 467 537 37,000  Level Seattle Center
Mon 09:59:53 AM 41.4444 -123.0253 178° South 466 536 37,000  Level Seattle Center
Mon 10:00:54 AM 41.3153 -123.0200 178° South 466 536 37,000  Level Seattle Center
Mon 10:01:54 AM 41.1861 -123.0131 178° South 465 535 37,000  Level Seattle Center
Mon 10:02:55 AM 41.0558 -123.0075 178° South 466 536 37,000  Level Seattle Center
Mon 10:03:56 AM 40.9261 -123.0003 178° South 466 536 37,000  Level Seattle Center
Mon 10:04:23 AM 40.8483 -122.9969 178° South 468 539 37,000  Level Oakland Center
Mon 10:05:24 AM 40.7286 -122.9911 178° South 469 540 37,000  Level Oakland Center
Mon 10:06:25 AM 40.5992 -122.9853 178° South 470 541 37,000  Level Oakland Center
Mon 10:07:25 AM 40.4703 -122.9792 178° South 468 539 37,000  Level Oakland Center
Mon 10:08:26 AM 40.3428 -122.9733 178° South 462 532 37,000  Level Oakland Center
Mon 10:09:27 AM 40.1900 -122.9669 178° South 462 532 37,000  Level Oakland Center
Mon 10:10:28 AM 40.0633 -122.9608 178° South 460 529 37,000  Level Oakland Center
Mon 10:11:29 AM 39.9406 -122.9544 178° South 447 514 37,000  Level Oakland Center
Mon 10:12:30 AM 39.8150 -122.9497 178° South 452 520 37,000  Level Oakland Center
Mon 10:13:31 AM 39.6903 -122.9442 178° South 451 519 37,000  Level Oakland Center
Mon 10:14:32 AM 39.5639 -122.9369 177° South 452 520 37,000  Level Oakland Center
Mon 10:15:33 AM 39.4442 -122.9300 177° South 450 518 37,000  Level Oakland Center
Mon 10:16:34 AM 39.3186 -122.9211 177° South 451 519 37,000  Level Oakland Center
Mon 10:17:35 AM 39.1917 -122.9172 179° South 455 524 37,000  Level Oakland Center
Mon 10:18:37 AM 39.0414 -122.9100 178° South 451 519 37,000 -344 Level Oakland Center
Mon 10:19:37 AM 38.9156 -122.9044 178° South 452 520 36,300 -1,636 Descending Oakland Center
Mon 10:20:38 AM 38.7919 -122.8992 178° South 445 512 33,700 -2,557 Descending Oakland Center
Mon 10:21:39 AM 38.6672 -122.8933 178° South 449 517 31,100 -2,311 Descending Oakland Center
Mon 10:22:40 AM 38.5439 -122.8906 179° South 439 505 29,000 -2,066 Descending Oakland Center
Mon 10:23:41 AM 38.4239 -122.8839 178° South 433 498 26,900 -2,016 Descending Oakland Center
Mon 10:24:42 AM 38.3097 -122.8792 178° South 410 472 24,900 -1,918 Descending Oakland Center
Mon 10:25:43 AM 38.1981 -122.8739 178° South 405 466 23,000 -1,869 Descending Oakland Center
Mon 10:26:44 AM 38.0914 -122.8669 177° South 387 445 21,100 -2,066 Descending Oakland Center
Mon 10:27:45 AM 37.9886 -122.7708 144° Southeast 385 443 18,800 -2,016 Descending Oakland Center
Mon 10:28:46 AM 37.9094 -122.6864 140° Southeast 381 438 17,000 -1,756 Descending Oakland Center
Mon 10:29:48 AM 37.8333 -122.6044 140° Southeast 374 430 15,200 -1,905 Descending Oakland Center
Mon 10:30:52 AM 37.7500 -122.5000 135° Southeast 360 414 13,000 -1,627 Descending Northern Cal TRACON
Mon 10:31:46 AM 37.6833 -122.4333 142° Southeast 351 404 12,000 -556 Descending Northern Cal TRACON
Mon 10:32:40 AM 37.6167 -122.3667 142° Southeast 352 405 12,000 -389 Level Northern Cal TRACON
Mon 10:33:34 AM 37.5333 -122.3167 155° Southeast 325 374 11,300 -833 Descending Northern Cal TRACON
Mon 10:33:52 AM 37.5286 -122.3078 124° Southeast 327 376 11,000 -1,443 Descending Oakland Center
Mon 10:34:53 AM 37.4344 -122.2514 155° Southeast 313 360 9,400 -1,475 Descending Oakland Center
Mon 10:35:54 AM 37.3694 -122.1914 144° Southeast 302 348 8,000 -1,220 Descending Oakland Center
Mon 10:36:56 AM 37.3192 -122.1092 128° Southeast 298 343 6,900 -585 Descending Oakland Center
Mon 10:37:57 AM 37.2719 -122.0314 127° Southeast 285 328 6,800 -443 Descending Oakland Center
Mon 10:38:58 AM 37.2400 -121.9536 117° Southeast 255 293 6,000 -787 Descending Oakland Center
Mon 10:39:59 AM 37.2094 -121.8819 118° Southeast 243 280 5,200 -787 Descending Oakland Center
Mon 10:41:00 AM 37.2183 -121.8203 80° East 218 251 4,400 -878 Descending Oakland Center
Mon 10:42:02 AM 37.2644 -121.8228 358° North 195 224 3,400 -1,317 Descending Oakland Center
Mon 10:43:03 AM 37.2989 -121.8608 319° Northwest 174 200 1,700 -1,377 Descending Oakland Center
Mon 10:44:04 AM 37.3328 -121.8972 320° Northwest 166 191 600 -1,082 Descending Oakland Center

Login

Don't have an account? Register now (free) for customized features, flight alerts, and more!